Forside
METAR-TAF:

METAR-TAF

Lufthavne :

Malé, Maldiverne

Breddekreds: 04-12N, længdekreds: 073-32E, højde: 2 m

Aktuelle vejr

Denne rapport blev lavet for 59 minutter siden, kl. 16:00 UTC
Vind 4 kt fra vestsydvest
Temperatur 28°C
Fugtighed 74%
Tryk 1013 hPa
Sigt 10 km eller mere
Nogle få skyer i en højde af 1800 ft
Spredte skyer i en højde af 29000 ft

METAR: VRMM 151600Z 25004KT 9999 FEW018 SCT290 28/23 Q1013 NOSIG

Tid: 21:59 (16:59 UTC)

Vejrudsigter

Denne rapport blev lavet for 5 timer og 59 minutter siden, kl. 11:00 UTC
Foreløbig gælder fra 15 på 12 UTC til 16 på 18 UTC
Vind 5 kt fra vestsydvest
Sigt 10 km eller mere
Nogle få skyer i en højde af 1900 ft
Midlertidig
fra 15 på 13 UTC til 15 på 17 UTC
Nogle få skyer i en højde af 2000 ft, Cumulonimbus.

TAF: VRMM 151100Z 1512/1618 25005KT 9999 FEW019 TEMPO 1513/1517 FEW020CB

Vejrobservationer og prognoser fra mere end 4000 lufthavne (METAR og TAF).

De gule og røde prikker repræsenterer de meteorologiske stationer.

Flyt musen over at se navnet på stationen.

Så klik over at se vejr observationer og prognoser.

At skifte det kort: Klik på de grønne knapper med et sort kors for at zoome ind; på den grønne knap med en bindestreg for at zoome ud; eller på de grønne pile for tilstødende kort.


METAR-TAF: